Terminal Aerodrome Forecast
Issued by NWS Dodge City, KS

Home | Current Version | Previous Version | Graphics & Text | Print | Product List | Glossary Off
Versions: 1 2 3 4 5 6 7 8 9 10 11 12 13 14 15 16 17 18 19 20

000
FTUS43 KDDC 220407 AAA
TAFDDC
TAF AMD
KDDC 220407Z 2204/2224 07008KT P6SM BKN025
     FM220700 11006KT P6SM -FZDZ OVC012
     FM221000 08006KT 5SM -FZDZ BKN008
     FM221800 15007KT P6SM BKN012=

USA.gov is the U.S. government's official web portal to all federal, state and local government web resources and services.